Terminal Aerodrome Forecast
Issued by NWS

Current Version | Previous Version | Graphics & Text | Print | Product List | Glossary On
Versions: 1 2 3 4 5 6 7 8 9 10 11 12 13 14 15 16 17 18 19 20 21 22 23 24 25 26
000
FTUS41 KILN 171700
TAFLCK
TAF
KLCK 171737Z 1718/1818 22012G22KT P6SM SCT025 BKN250
     FM180100 25014KT P6SM OVC035
     FM180800 28012KT P6SM OVC014
     FM181300 30013G23KT P6SM OVC018=

USA.gov is the U.S. government's official web portal to all federal, state and local government web resources and services.